createdAt,value
2017-08-02T00:00:47.562Z,16.7
2017-08-02T00:01:49.238Z,16.8
2017-08-02T00:02:50.891Z,16.7
2017-08-02T00:03:52.558Z,16.7
2017-08-02T00:04:54.220Z,16.7
2017-08-02T00:05:55.883Z,16.7
2017-08-02T00:06:57.542Z,16.8
2017-08-02T00:07:59.196Z,16.8
2017-08-02T00:09:00.862Z,16.7
2017-08-02T00:10:02.522Z,16.8
2017-08-02T00:11:04.219Z,16.9
2017-08-02T00:12:05.881Z,16.9
2017-08-02T00:13:07.547Z,16.9
2017-08-02T00:14:09.207Z,16.9
2017-08-02T00:15:10.865Z,17.0
2017-08-02T00:16:12.526Z,17.0
2017-08-02T00:17:14.187Z,16.9
2017-08-02T00:18:15.856Z,17.0
2017-08-02T00:19:17.511Z,17.0
2017-08-02T00:20:19.174Z,17.0
2017-08-02T00:21:20.846Z,17.0
2017-08-02T00:22:22.505Z,16.9
2017-08-02T00:23:24.164Z,16.9
2017-08-02T00:24:25.830Z,16.9
2017-08-02T00:25:27.494Z,16.9
2017-08-02T00:26:29.156Z,16.8
2017-08-02T00:27:30.894Z,16.9
2017-08-02T00:28:32.561Z,16.8
2017-08-02T00:29:34.217Z,16.8
2017-08-02T00:30:35.885Z,16.8
2017-08-02T00:31:37.551Z,16.8
2017-08-02T00:32:39.207Z,16.8
2017-08-02T00:33:40.966Z,17.0
2017-08-02T00:34:42.628Z,17.0
2017-08-02T00:35:44.291Z,17.0
2017-08-02T00:36:45.949Z,16.9
2017-08-02T00:37:47.607Z,16.8
2017-08-02T00:38:49.278Z,16.8
2017-08-02T00:39:50.936Z,16.8
2017-08-02T00:40:52.597Z,16.8
2017-08-02T00:41:54.268Z,16.9
2017-08-02T00:42:55.931Z,16.9
2017-08-02T00:43:57.587Z,16.9
2017-08-02T00:44:59.245Z,16.9
2017-08-02T00:46:00.912Z,16.9
2017-08-02T00:47:02.569Z,16.8
2017-08-02T00:48:04.257Z,16.8
2017-08-02T00:49:05.909Z,16.8
2017-08-02T00:50:07.563Z,16.8
2017-08-02T00:51:09.220Z,16.6
2017-08-02T00:52:10.881Z,16.6
2017-08-02T00:53:12.546Z,16.7
2017-08-02T00:54:14.207Z,16.5
2017-08-02T00:55:15.870Z,16.3
2017-08-02T00:56:17.530Z,16.4
2017-08-02T00:57:19.207Z,16.4
2017-08-02T00:58:20.864Z,16.5
2017-08-02T00:59:22.517Z,16.4
2017-08-02T01:00:24.177Z,16.5
2017-08-02T01:01:25.835Z,16.3
2017-08-02T01:02:27.502Z,16.4
2017-08-02T01:03:29.162Z,16.2
2017-08-02T01:04:30.824Z,16.3
2017-08-02T01:05:32.479Z,16.1
2017-08-02T01:06:34.137Z,16.2
2017-08-02T01:07:35.801Z,16.3
2017-08-02T01:08:37.464Z,16.2
2017-08-02T01:09:39.131Z,16.3
2017-08-02T01:10:40.795Z,16.5
2017-08-02T01:11:42.458Z,16.4
2017-08-02T01:12:44.120Z,16.4
2017-08-02T01:13:45.782Z,16.4
2017-08-02T01:14:47.454Z,16.5
2017-08-02T01:15:49.106Z,16.4
2017-08-02T01:16:50.766Z,16.6
2017-08-02T01:17:52.432Z,16.5
2017-08-02T01:18:54.096Z,16.5
2017-08-02T01:19:55.757Z,16.5
2017-08-02T01:20:57.432Z,16.4
2017-08-02T01:21:59.089Z,16.5
2017-08-02T01:23:00.750Z,16.4
2017-08-02T01:24:02.414Z,16.5
2017-08-02T01:25:04.078Z,16.4
2017-08-02T01:26:05.744Z,16.4
2017-08-02T01:27:07.409Z,16.3
2017-08-02T01:28:09.073Z,16.3
2017-08-02T01:29:10.729Z,16.3
2017-08-02T01:30:12.388Z,16.2
2017-08-02T01:31:14.058Z,16.2
2017-08-02T01:32:15.816Z,16.1
2017-08-02T01:33:17.488Z,16.1
2017-08-02T01:34:19.152Z,15.9
2017-08-02T01:35:20.811Z,15.9
2017-08-02T01:36:22.485Z,15.9
2017-08-02T01:37:24.156Z,15.9
2017-08-02T01:38:25.813Z,15.9
2017-08-02T01:39:27.476Z,15.8
2017-08-02T01:40:29.137Z,15.9
2017-08-02T01:41:30.794Z,15.8
2017-08-02T01:42:32.464Z,15.9
2017-08-02T01:43:34.125Z,15.9
2017-08-02T01:44:35.787Z,15.9
2017-08-02T01:45:38.339Z,15.9
2017-08-02T01:46:39.060Z,16.0
2017-08-02T01:47:40.726Z,16.0
2017-08-02T01:48:42.395Z,16.1
2017-08-02T01:49:44.056Z,16.0
2017-08-02T01:50:45.711Z,16.0
2017-08-02T01:51:47.369Z,16.0
2017-08-02T01:52:49.030Z,16.1
2017-08-02T01:53:50.723Z,16.2
2017-08-02T01:54:52.376Z,16.1
2017-08-02T01:55:54.041Z,16.1
2017-08-02T01:56:55.706Z,16.0
2017-08-02T01:57:57.386Z,16.1
2017-08-02T01:58:59.028Z,16.0
2017-08-02T02:00:00.695Z,15.8
2017-08-02T02:01:02.361Z,15.7
2017-08-02T02:02:04.028Z,15.8
2017-08-02T02:03:05.693Z,15.6
2017-08-02T02:04:07.352Z,15.7
2017-08-02T02:05:09.011Z,15.5
2017-08-02T02:06:10.676Z,15.5
2017-08-02T02:07:12.335Z,15.4
2017-08-02T02:08:13.996Z,15.5
2017-08-02T02:09:15.659Z,15.4
2017-08-02T02:10:17.323Z,15.3
2017-08-02T02:11:18.984Z,15.2
2017-08-02T02:12:20.652Z,15.2
2017-08-02T02:13:22.311Z,15.2
2017-08-02T02:14:23.969Z,15.2
2017-08-02T02:15:25.635Z,15.0
2017-08-02T02:16:27.294Z,15.1
2017-08-02T02:17:28.953Z,15.1
2017-08-02T02:18:30.664Z,15.2
2017-08-02T02:19:32.331Z,15.1
2017-08-02T02:20:33.989Z,15.2
2017-08-02T02:21:35.647Z,15.1
2017-08-02T02:22:37.309Z,15.2
2017-08-02T02:23:38.979Z,15.1
2017-08-02T02:24:40.632Z,15.1
2017-08-02T02:25:42.290Z,15.0
2017-08-02T02:26:43.950Z,15.1
2017-08-02T02:27:45.613Z,15.0
2017-08-02T02:28:47.278Z,15.1
2017-08-02T02:29:48.944Z,14.9
2017-08-02T02:30:50.607Z,14.8
2017-08-02T02:31:52.278Z,14.9
2017-08-02T02:32:53.938Z,14.9
2017-08-02T02:33:55.602Z,15.0
2017-08-02T02:34:57.268Z,15.2
2017-08-02T02:35:58.936Z,15.1
2017-08-02T02:37:00.599Z,15.2
2017-08-02T02:38:02.260Z,15.2
2017-08-02T02:39:03.915Z,14.9
2017-08-02T02:40:05.566Z,14.8
2017-08-02T02:41:07.231Z,15.0
2017-08-02T02:42:08.888Z,15.0
2017-08-02T02:43:10.553Z,15.1
2017-08-02T02:44:12.227Z,15.1
2017-08-02T02:45:13.889Z,15.0
2017-08-02T02:46:15.544Z,14.7
2017-08-02T02:47:17.198Z,14.7
2017-08-02T02:48:18.861Z,14.8
2017-08-02T02:49:20.524Z,14.8
2017-08-02T02:50:22.184Z,14.7
2017-08-02T02:51:23.853Z,14.8
2017-08-02T02:52:25.514Z,14.7
2017-08-02T02:53:27.176Z,14.7
2017-08-02T02:54:28.828Z,14.7
2017-08-02T02:55:30.493Z,14.7
2017-08-02T02:56:32.165Z,14.7
2017-08-02T02:57:33.911Z,14.7
2017-08-02T02:58:35.572Z,14.5
2017-08-02T02:59:37.235Z,14.6
2017-08-02T03:00:38.903Z,14.6
2017-08-02T03:01:40.630Z,14.6
2017-08-02T03:02:42.283Z,14.7
2017-08-02T03:03:43.943Z,14.7
2017-08-02T03:04:45.599Z,14.7
2017-08-02T03:05:47.264Z,14.7
2017-08-02T03:06:48.923Z,14.7
2017-08-02T03:07:50.584Z,14.7
2017-08-02T03:08:52.242Z,14.7
2017-08-02T03:09:53.905Z,14.8
2017-08-02T03:10:55.567Z,15.0
2017-08-02T03:11:57.232Z,14.9
2017-08-02T03:12:58.893Z,14.9
2017-08-02T03:14:00.577Z,14.9
2017-08-02T03:15:02.240Z,14.9
2017-08-02T03:16:03.897Z,14.9
2017-08-02T03:17:05.558Z,14.9
2017-08-02T03:18:07.222Z,15.0
2017-08-02T03:19:08.878Z,14.9
2017-08-02T03:20:10.545Z,14.8
2017-08-02T03:21:12.208Z,15.0
2017-08-02T03:22:13.870Z,15.0
2017-08-02T03:23:15.536Z,15.0
2017-08-02T03:24:17.200Z,14.9
2017-08-02T03:25:18.866Z,14.9
2017-08-02T03:26:20.534Z,14.9
2017-08-02T03:27:22.196Z,15.0
2017-08-02T03:28:23.879Z,15.0
2017-08-02T03:29:25.540Z,15.0
2017-08-02T03:30:27.207Z,15.1
2017-08-02T03:31:28.863Z,15.1
2017-08-02T03:32:30.526Z,15.1
2017-08-02T03:33:32.187Z,15.0
2017-08-02T03:34:33.865Z,15.0
2017-08-02T03:35:35.533Z,14.9
2017-08-02T03:36:37.203Z,15.0
2017-08-02T03:37:38.870Z,14.9
2017-08-02T03:38:40.535Z,14.9
2017-08-02T03:39:42.192Z,15.0
2017-08-02T03:40:43.852Z,14.9
2017-08-02T03:41:45.518Z,14.9
2017-08-02T03:42:47.178Z,15.0
2017-08-02T03:43:48.841Z,15.0
2017-08-02T03:44:50.497Z,14.9
2017-08-02T03:45:52.158Z,15.0
2017-08-02T03:46:53.819Z,14.9
2017-08-02T03:47:55.482Z,15.1
2017-08-02T03:48:57.152Z,15.0
2017-08-02T03:49:58.816Z,15.0
2017-08-02T03:51:00.472Z,15.0
2017-08-02T03:52:02.136Z,15.1
2017-08-02T03:53:03.800Z,15.1
2017-08-02T03:54:05.465Z,15.1
2017-08-02T03:55:07.133Z,15.0
2017-08-02T03:56:08.794Z,14.9
2017-08-02T03:57:10.458Z,15.0
2017-08-02T03:58:12.114Z,15.0
2017-08-02T03:59:13.792Z,15.0
2017-08-02T04:00:15.458Z,14.9
2017-08-02T04:01:17.119Z,14.9
2017-08-02T04:02:18.783Z,14.9
2017-08-02T04:03:20.453Z,14.9
2017-08-02T04:04:22.114Z,14.9
2017-08-02T04:05:23.776Z,14.9
2017-08-02T04:06:25.443Z,15.0
2017-08-02T04:07:27.114Z,14.9
2017-08-02T04:08:28.777Z,14.9
2017-08-02T04:09:30.443Z,14.8
2017-08-02T04:10:32.106Z,15.0
2017-08-02T04:11:33.768Z,14.9
2017-08-02T04:12:35.436Z,15.0
2017-08-02T04:13:37.104Z,14.9
2017-08-02T04:14:38.762Z,15.0
2017-08-02T04:15:40.423Z,14.9
2017-08-02T04:16:42.117Z,14.9
2017-08-02T04:17:43.785Z,15.0
2017-08-02T04:18:45.448Z,15.1
2017-08-02T04:19:47.106Z,15.0
2017-08-02T04:20:48.765Z,15.1
2017-08-02T04:21:50.439Z,15.1
2017-08-02T04:22:52.110Z,15.0
2017-08-02T04:23:53.787Z,15.1
2017-08-02T04:24:55.467Z,15.0
2017-08-02T04:25:57.116Z,15.0
2017-08-02T04:26:58.780Z,15.0
2017-08-02T04:28:00.448Z,14.9
2017-08-02T04:29:02.116Z,15.0
2017-08-02T04:30:03.775Z,14.9
2017-08-02T04:31:05.445Z,14.9
2017-08-02T04:32:07.112Z,15.0
2017-08-02T04:33:08.787Z,15.0
2017-08-02T04:34:10.457Z,15.1
2017-08-02T04:35:12.127Z,15.1
2017-08-02T04:36:13.794Z,15.1
2017-08-02T04:37:15.458Z,15.1
2017-08-02T04:38:17.130Z,15.1
2017-08-02T04:39:18.785Z,15.1
2017-08-02T04:40:20.454Z,15.2
2017-08-02T04:41:22.139Z,15.1
2017-08-02T04:42:23.812Z,15.2
2017-08-02T04:43:25.478Z,15.2
2017-08-02T04:44:27.145Z,15.4
2017-08-02T04:45:28.820Z,15.3
2017-08-02T04:46:30.484Z,15.4
2017-08-02T04:47:32.156Z,15.4
2017-08-02T04:48:33.818Z,15.5
2017-08-02T04:49:35.486Z,15.4
2017-08-02T04:50:37.153Z,15.4
2017-08-02T04:51:38.819Z,15.4
2017-08-02T04:52:40.483Z,15.4
2017-08-02T04:53:42.148Z,15.4
2017-08-02T04:54:43.815Z,15.5
2017-08-02T04:55:45.483Z,15.5
2017-08-02T04:56:47.147Z,15.4
2017-08-02T04:57:48.811Z,15.5
2017-08-02T04:58:50.478Z,15.5
2017-08-02T04:59:52.153Z,15.6
2017-08-02T05:00:53.819Z,15.5
2017-08-02T05:01:55.498Z,15.5
2017-08-02T05:02:57.157Z,15.5
2017-08-02T05:03:58.825Z,15.5
2017-08-02T05:05:00.490Z,15.6
2017-08-02T05:06:02.155Z,15.6
2017-08-02T05:07:03.829Z,15.7
2017-08-02T05:08:05.504Z,15.6
2017-08-02T05:09:07.175Z,15.5
2017-08-02T05:10:08.837Z,15.5
2017-08-02T05:11:10.501Z,15.5
2017-08-02T05:12:12.164Z,15.5
2017-08-02T05:13:13.835Z,15.6
2017-08-02T05:14:15.510Z,15.6
2017-08-02T05:15:17.184Z,15.7
2017-08-02T05:16:18.857Z,15.7
2017-08-02T05:17:20.535Z,15.6
2017-08-02T05:18:22.213Z,15.7
2017-08-02T05:19:23.870Z,15.8
2017-08-02T05:20:25.536Z,15.8
2017-08-02T05:21:27.231Z,15.9
2017-08-02T05:22:28.886Z,15.8
2017-08-02T05:23:30.559Z,16.0
2017-08-02T05:24:32.233Z,16.2
2017-08-02T05:25:33.898Z,16.5
2017-08-02T05:26:35.567Z,16.4
2017-08-02T05:27:37.234Z,16.3
2017-08-02T05:28:38.901Z,16.3
2017-08-02T05:29:40.572Z,16.2
2017-08-02T05:30:42.249Z,16.2
2017-08-02T05:31:43.916Z,16.2
2017-08-02T05:32:45.594Z,16.1
2017-08-02T05:33:47.256Z,16.1
2017-08-02T05:34:48.932Z,15.9
2017-08-02T05:35:50.602Z,16.1
2017-08-02T05:36:52.271Z,15.9
2017-08-02T05:37:53.936Z,15.9
2017-08-02T05:38:55.701Z,15.9
2017-08-02T05:39:57.369Z,16.0
2017-08-02T05:40:59.030Z,16.1
2017-08-02T05:42:00.702Z,16.1
2017-08-02T05:43:02.370Z,16.4
2017-08-02T05:44:04.044Z,16.3
2017-08-02T05:45:05.731Z,16.4
2017-08-02T05:46:07.397Z,16.5
2017-08-02T05:47:09.059Z,16.4
2017-08-02T05:48:10.738Z,16.5
2017-08-02T05:49:12.409Z,16.5
2017-08-02T05:50:14.080Z,16.6
2017-08-02T05:51:15.764Z,16.6
2017-08-02T05:52:17.451Z,16.9
2017-08-02T05:53:19.117Z,17.0
2017-08-02T05:54:20.791Z,17.2
2017-08-02T05:55:22.454Z,17.1
2017-08-02T05:56:24.127Z,17.2
2017-08-02T05:57:25.799Z,17.3
2017-08-02T05:58:27.465Z,17.7
2017-08-02T05:59:29.136Z,17.9
2017-08-02T06:00:30.811Z,18.0
2017-08-02T06:01:32.481Z,17.6
2017-08-02T06:02:34.295Z,17.5
2017-08-02T06:03:35.972Z,17.7
2017-08-02T06:04:37.641Z,17.8
2017-08-02T06:05:39.307Z,17.9
2017-08-02T06:06:40.980Z,18.0
2017-08-02T06:07:42.658Z,18.3
2017-08-02T06:08:44.326Z,18.8
2017-08-02T06:09:45.999Z,19.0
2017-08-02T06:10:47.673Z,19.3
2017-08-02T06:11:49.352Z,19.5
2017-08-02T06:12:51.014Z,19.0
2017-08-02T06:13:52.690Z,18.8
2017-08-02T06:14:54.354Z,19.0
2017-08-02T06:15:56.029Z,18.5
2017-08-02T06:16:57.700Z,18.5
2017-08-02T06:17:59.367Z,18.4
2017-08-02T06:19:01.044Z,18.2
2017-08-02T06:20:02.721Z,18.4
2017-08-02T06:21:04.395Z,18.5
2017-08-02T06:22:06.068Z,18.4
2017-08-02T06:23:07.741Z,18.4
2017-08-02T06:24:09.414Z,18.4
2017-08-02T06:25:11.087Z,18.4
2017-08-02T06:26:12.760Z,18.7
2017-08-02T06:27:14.437Z,18.7
2017-08-02T06:28:16.114Z,18.7
2017-08-02T06:29:17.788Z,19.3
2017-08-02T06:30:19.460Z,20.6
2017-08-02T06:31:21.140Z,20.8
2017-08-02T06:32:22.814Z,20.6
2017-08-02T06:33:24.490Z,20.6
2017-08-02T06:34:26.166Z,20.4
2017-08-02T06:35:27.841Z,20.1
2017-08-02T06:36:29.522Z,20.2
2017-08-02T06:37:31.200Z,20.8
2017-08-02T06:38:32.892Z,20.7
2017-08-02T06:39:34.563Z,20.3
2017-08-02T06:40:36.245Z,20.2
2017-08-02T06:41:37.923Z,19.5
2017-08-02T06:42:39.603Z,19.6
2017-08-02T06:43:41.284Z,19.7
2017-08-02T06:44:42.971Z,19.6
2017-08-02T06:45:44.644Z,19.6
2017-08-02T06:46:46.317Z,19.7
2017-08-02T06:47:48.000Z,19.6
2017-08-02T06:48:49.669Z,19.8
2017-08-02T06:49:51.340Z,19.9
2017-08-02T06:50:53.013Z,20.5
2017-08-02T06:51:54.688Z,20.8
2017-08-02T06:52:56.359Z,20.8
2017-08-02T06:53:58.040Z,20.9
2017-08-02T06:54:59.721Z,21.2
2017-08-02T06:56:01.408Z,22.3
2017-08-02T06:57:03.084Z,23.3
2017-08-02T06:58:04.756Z,24.2
2017-08-02T06:59:06.441Z,24.2
2017-08-02T07:00:08.104Z,24.8
2017-08-02T07:01:09.781Z,25.1
2017-08-02T07:02:11.458Z,25.3
2017-08-02T07:03:13.141Z,25.3
2017-08-02T07:04:14.820Z,25.3
2017-08-02T07:05:16.499Z,25.5
2017-08-02T07:06:18.179Z,25.5
2017-08-02T07:07:19.859Z,25.6
2017-08-02T07:08:21.547Z,25.7
2017-08-02T07:09:23.224Z,25.8
2017-08-02T07:10:24.918Z,26.3
2017-08-02T07:11:26.600Z,26.4
2017-08-02T07:12:28.274Z,26.2
2017-08-02T07:13:29.951Z,26.6
2017-08-02T07:14:31.630Z,27.2
2017-08-02T07:15:33.312Z,27.1
2017-08-02T07:16:34.991Z,26.8
2017-08-02T07:17:36.669Z,26.9
2017-08-02T07:18:38.352Z,26.9
2017-08-02T07:19:40.035Z,27.0
2017-08-02T07:20:41.712Z,27.1
2017-08-02T07:21:43.384Z,27.3
2017-08-02T07:22:45.061Z,27.6
2017-08-02T07:23:46.748Z,27.4
2017-08-02T07:24:48.430Z,27.0
2017-08-02T07:25:50.124Z,27.6
2017-08-02T07:26:51.794Z,28.2
2017-08-02T07:27:53.478Z,27.9
2017-08-02T07:28:55.155Z,27.7
2017-08-02T07:29:56.840Z,27.9
2017-08-02T07:30:58.519Z,27.5
2017-08-02T07:32:00.206Z,27.7
2017-08-02T07:33:01.892Z,27.6
2017-08-02T07:34:03.565Z,27.5
2017-08-02T07:35:05.247Z,26.9
2017-08-02T07:36:06.920Z,26.2
2017-08-02T07:37:08.604Z,25.4
2017-08-02T07:38:10.274Z,25.5
2017-08-02T07:39:11.956Z,25.3
2017-08-02T07:40:13.664Z,25.1
2017-08-02T07:41:15.332Z,24.9
2017-08-02T07:42:17.005Z,24.9
2017-08-02T07:43:18.691Z,25.0
2017-08-02T07:44:20.511Z,25.0
2017-08-02T07:45:22.165Z,25.3
2017-08-02T07:46:23.844Z,25.4
2017-08-02T07:47:25.536Z,25.1
2017-08-02T07:48:27.213Z,25.0
2017-08-02T07:49:28.902Z,24.9
2017-08-02T07:50:30.590Z,25.0
2017-08-02T07:51:32.270Z,25.4
2017-08-02T07:52:33.945Z,25.5
2017-08-02T07:53:35.626Z,25.5
2017-08-02T07:54:37.304Z,25.8
2017-08-02T07:55:38.985Z,26.2
2017-08-02T07:56:40.663Z,26.5
2017-08-02T07:57:42.335Z,26.4
2017-08-02T07:58:44.010Z,26.6
2017-08-02T07:59:45.688Z,26.7
2017-08-02T08:00:47.362Z,26.8
2017-08-02T08:01:49.045Z,27.3
2017-08-02T08:02:50.714Z,27.7
2017-08-02T08:03:52.405Z,28.0
2017-08-02T08:04:54.087Z,28.0
2017-08-02T08:05:55.764Z,28.0
2017-08-02T08:06:57.450Z,28.4
2017-08-02T08:07:59.126Z,28.0
2017-08-02T08:09:00.815Z,28.1
2017-08-02T08:10:02.490Z,28.3
2017-08-02T08:11:04.166Z,28.6
2017-08-02T08:12:05.852Z,29.0
2017-08-02T08:13:07.534Z,29.1
2017-08-02T08:14:09.215Z,29.4
2017-08-02T08:15:10.898Z,29.7
2017-08-02T08:16:12.571Z,29.8
2017-08-02T08:17:14.257Z,29.4
2017-08-02T08:18:15.940Z,29.4
2017-08-02T08:19:17.615Z,29.7
2017-08-02T08:20:19.293Z,29.5
2017-08-02T08:21:20.983Z,29.2
2017-08-02T08:22:22.664Z,29.6
2017-08-02T08:23:24.351Z,29.7
2017-08-02T08:24:26.024Z,30.2
2017-08-02T08:25:27.728Z,30.5
2017-08-02T08:26:29.392Z,30.6
2017-08-02T08:27:31.084Z,30.9
2017-08-02T08:28:32.759Z,30.7
2017-08-02T08:29:34.441Z,30.6
2017-08-02T08:30:36.120Z,30.3
2017-08-02T08:31:37.805Z,30.6
2017-08-02T08:32:39.486Z,30.6
2017-08-02T08:33:41.232Z,31.8
2017-08-02T08:34:42.919Z,31.6
2017-08-02T08:35:44.602Z,31.5
2017-08-02T08:36:46.289Z,31.2
2017-08-02T08:37:47.984Z,30.3
2017-08-02T08:38:49.671Z,30.1
2017-08-02T08:39:51.393Z,29.0
2017-08-02T08:40:53.076Z,27.7
2017-08-02T08:41:54.758Z,26.9
2017-08-02T08:42:56.437Z,26.4
2017-08-02T08:43:58.128Z,25.8
2017-08-02T08:44:59.807Z,25.5
2017-08-02T08:46:01.485Z,25.4
2017-08-02T08:47:03.173Z,25.7
2017-08-02T08:48:04.849Z,25.8
2017-08-02T08:49:06.530Z,26.0
2017-08-02T08:50:08.226Z,26.5
2017-08-02T08:51:09.901Z,26.9
2017-08-02T08:52:11.588Z,27.5
2017-08-02T08:53:13.273Z,27.9
2017-08-02T08:54:14.946Z,28.3
2017-08-02T08:55:16.619Z,28.3
2017-08-02T08:56:18.307Z,27.9
2017-08-02T08:57:20.022Z,28.1
2017-08-02T08:58:21.707Z,28.3
2017-08-02T08:59:23.390Z,28.3
2017-08-02T09:00:25.070Z,29.5
2017-08-02T09:01:26.752Z,30.7
2017-08-02T09:02:28.437Z,31.4
2017-08-02T09:03:30.125Z,31.3
2017-08-02T09:04:31.806Z,31.2
2017-08-02T09:05:33.487Z,31.2
2017-08-02T09:06:35.166Z,31.2
2017-08-02T09:07:36.839Z,31.0
2017-08-02T09:08:38.524Z,29.1
2017-08-02T09:09:40.206Z,28.8
2017-08-02T09:10:41.888Z,28.4
2017-08-02T09:11:43.567Z,28.1
2017-08-02T09:12:45.259Z,28.0
2017-08-02T09:13:46.937Z,27.6
2017-08-02T09:14:48.615Z,27.3
2017-08-02T09:15:50.295Z,27.5
2017-08-02T09:16:51.977Z,27.0
2017-08-02T09:17:53.716Z,27.4
2017-08-02T09:18:55.393Z,27.8
2017-08-02T09:19:57.079Z,27.8
2017-08-02T09:20:58.778Z,27.9
2017-08-02T09:22:00.451Z,28.0
2017-08-02T09:23:02.136Z,27.5
2017-08-02T09:24:03.818Z,26.8
2017-08-02T09:25:05.501Z,26.3
2017-08-02T09:26:07.179Z,25.5
2017-08-02T09:27:08.879Z,25.4
2017-08-02T09:28:10.698Z,25.2
2017-08-02T09:29:12.365Z,25.1
2017-08-02T09:30:14.046Z,25.1
2017-08-02T09:31:15.721Z,24.8
2017-08-02T09:32:17.724Z,25.1
2017-08-02T09:33:19.397Z,25.0
2017-08-02T09:34:21.073Z,25.2
2017-08-02T09:35:22.758Z,25.3
2017-08-02T09:36:24.438Z,25.5
2017-08-02T09:37:26.113Z,25.7
2017-08-02T09:38:27.789Z,26.1
2017-08-02T09:39:29.576Z,26.3
2017-08-02T09:40:31.260Z,26.3
2017-08-02T09:41:32.940Z,26.3
2017-08-02T09:42:34.624Z,26.4
2017-08-02T09:43:36.300Z,26.4
2017-08-02T09:44:37.981Z,26.2
2017-08-02T09:45:39.657Z,26.2
2017-08-02T09:46:41.335Z,26.0
2017-08-02T09:47:43.009Z,26.4
2017-08-02T09:48:44.689Z,26.4
2017-08-02T09:49:46.371Z,26.6
2017-08-02T09:50:48.048Z,26.9
2017-08-02T09:51:49.724Z,26.8
2017-08-02T09:52:51.399Z,26.6
2017-08-02T09:53:53.079Z,26.4
2017-08-02T09:54:54.761Z,25.9
2017-08-02T09:55:56.435Z,26.1
2017-08-02T09:56:58.117Z,26.7
2017-08-02T09:57:59.795Z,27.0
2017-08-02T09:59:01.466Z,27.6
2017-08-02T10:00:03.147Z,28.3
2017-08-02T10:01:04.830Z,29.1
2017-08-02T10:02:06.543Z,28.9
2017-08-02T10:03:08.230Z,29.1
2017-08-02T10:04:09.911Z,29.1
2017-08-02T10:05:11.670Z,30.0
2017-08-02T10:06:13.350Z,30.3
2017-08-02T10:07:15.173Z,29.3
2017-08-02T10:08:16.862Z,29.9
2017-08-02T10:09:18.554Z,30.2
2017-08-02T10:10:20.241Z,30.5
2017-08-02T10:11:21.923Z,29.9
2017-08-02T10:12:23.603Z,29.5
2017-08-02T10:13:25.293Z,29.4
2017-08-02T10:14:26.973Z,30.1
2017-08-02T10:15:28.659Z,30.2
2017-08-02T10:16:30.342Z,30.3
2017-08-02T10:17:32.022Z,30.6
2017-08-02T10:18:33.701Z,30.4
2017-08-02T10:19:35.376Z,30.4
2017-08-02T10:20:37.066Z,30.3
2017-08-02T10:21:38.750Z,29.7
2017-08-02T10:22:40.430Z,29.3
2017-08-02T10:23:42.130Z,29.7
2017-08-02T10:24:43.851Z,30.0
2017-08-02T10:25:45.545Z,30.0
2017-08-02T10:26:47.238Z,30.0
2017-08-02T10:27:48.916Z,30.2
2017-08-02T10:28:50.635Z,29.6
2017-08-02T10:29:52.295Z,29.1
2017-08-02T10:30:53.993Z,28.3
2017-08-02T10:31:55.678Z,28.0
2017-08-02T10:32:57.369Z,27.7
2017-08-02T10:33:59.035Z,27.2
2017-08-02T10:35:00.726Z,26.8
2017-08-02T10:36:02.410Z,26.5
2017-08-02T10:37:04.089Z,26.7
2017-08-02T10:38:05.771Z,27.2
2017-08-02T10:39:07.449Z,27.5
2017-08-02T10:40:09.129Z,27.1
2017-08-02T10:41:10.812Z,27.1
2017-08-02T10:42:12.488Z,27.5
2017-08-02T10:43:14.165Z,27.6
2017-08-02T10:44:15.878Z,27.2
2017-08-02T10:45:17.555Z,27.2
2017-08-02T10:46:19.240Z,27.0
2017-08-02T10:47:20.926Z,27.0
2017-08-02T10:48:22.606Z,26.6
2017-08-02T10:49:24.284Z,26.4
2017-08-02T10:50:25.964Z,26.2
2017-08-02T10:51:27.642Z,25.9
2017-08-02T10:52:29.335Z,25.8
2017-08-02T10:53:31.015Z,25.7
2017-08-02T10:54:32.698Z,25.6
2017-08-02T10:55:34.372Z,25.5
2017-08-02T10:56:36.041Z,25.5
2017-08-02T10:57:37.714Z,25.6
2017-08-02T10:58:39.393Z,25.7
2017-08-02T10:59:41.086Z,25.5
2017-08-02T11:00:42.769Z,25.5
2017-08-02T11:01:44.450Z,26.5
2017-08-02T11:02:46.127Z,27.3
2017-08-02T11:03:47.824Z,28.4
2017-08-02T11:04:49.535Z,28.5
2017-08-02T11:05:51.220Z,28.0
2017-08-02T11:06:52.901Z,28.1
2017-08-02T11:07:54.575Z,27.3
2017-08-02T11:08:56.269Z,27.3
2017-08-02T11:09:57.940Z,27.0
2017-08-02T11:10:59.620Z,26.7
2017-08-02T11:12:01.290Z,26.2
2017-08-02T11:13:02.969Z,25.9
2017-08-02T11:14:04.644Z,25.5
2017-08-02T11:15:06.315Z,25.2
2017-08-02T11:16:08.008Z,25.1
2017-08-02T11:17:09.676Z,25.3
2017-08-02T11:18:11.348Z,25.6
2017-08-02T11:19:13.030Z,25.6
2017-08-02T11:20:14.720Z,25.7
2017-08-02T11:21:16.392Z,25.6
2017-08-02T11:22:18.067Z,25.5
2017-08-02T11:23:19.749Z,25.8
2017-08-02T11:24:21.430Z,26.1
2017-08-02T11:25:23.096Z,25.8
2017-08-02T11:26:24.771Z,25.7
2017-08-02T11:27:26.445Z,25.6
2017-08-02T11:28:28.125Z,25.6
2017-08-02T11:29:29.808Z,25.7
2017-08-02T11:30:31.488Z,25.7
2017-08-02T11:31:33.158Z,25.8
2017-08-02T11:32:34.837Z,25.8
2017-08-02T11:33:36.507Z,25.9
2017-08-02T11:34:38.189Z,25.7
2017-08-02T11:35:39.872Z,26.0
2017-08-02T11:36:41.549Z,26.2
2017-08-02T11:37:43.283Z,26.2
2017-08-02T11:38:44.979Z,26.2
2017-08-02T11:39:46.696Z,26.2
2017-08-02T11:40:48.371Z,26.3
2017-08-02T11:41:50.060Z,26.6
2017-08-02T11:42:51.737Z,26.8
2017-08-02T11:43:53.429Z,27.3
2017-08-02T11:44:55.105Z,27.4
2017-08-02T11:45:56.776Z,27.5
2017-08-02T11:46:58.456Z,27.5
2017-08-02T11:48:00.138Z,27.3
2017-08-02T11:49:01.822Z,27.1
2017-08-02T11:50:03.513Z,27.0
2017-08-02T11:51:05.197Z,26.9
2017-08-02T11:52:06.876Z,27.1
2017-08-02T11:53:08.577Z,26.5
2017-08-02T11:54:10.248Z,26.9
2017-08-02T11:55:11.930Z,27.2
2017-08-02T11:56:13.605Z,27.3
2017-08-02T11:57:15.287Z,27.9
2017-08-02T11:58:17.026Z,28.2
2017-08-02T11:59:18.700Z,28.4
2017-08-02T12:00:20.376Z,28.6
2017-08-02T12:01:22.061Z,29.1
2017-08-02T12:02:23.762Z,29.6
2017-08-02T12:03:25.449Z,29.8
2017-08-02T12:04:27.122Z,29.4
2017-08-02T12:05:28.796Z,29.0
2017-08-02T12:06:30.476Z,28.9
2017-08-02T12:07:32.149Z,28.7
2017-08-02T12:08:33.830Z,28.8
2017-08-02T12:09:35.534Z,28.7
2017-08-02T12:10:37.218Z,28.8
2017-08-02T12:11:38.903Z,28.7
2017-08-02T12:12:40.589Z,28.2
2017-08-02T12:13:42.276Z,28.2
2017-08-02T12:14:44.760Z,28.0
2017-08-02T12:15:46.439Z,28.0
2017-08-02T12:16:48.119Z,27.9
2017-08-02T12:17:49.802Z,27.8
2017-08-02T12:18:51.495Z,28.1
2017-08-02T12:19:53.175Z,27.7
2017-08-02T12:20:54.854Z,28.2
2017-08-02T12:21:56.541Z,28.6
2017-08-02T12:22:58.221Z,28.3
2017-08-02T12:23:59.917Z,28.1
2017-08-02T12:25:01.585Z,27.7
2017-08-02T12:26:03.264Z,27.3
2017-08-02T12:27:04.972Z,27.4
2017-08-02T12:28:07.169Z,27.3
2017-08-02T12:29:08.857Z,27.0
2017-08-02T12:30:10.541Z,27.0
2017-08-02T12:31:12.220Z,26.9
2017-08-02T12:32:13.930Z,27.1
2017-08-02T12:33:15.612Z,27.3
2017-08-02T12:34:17.292Z,27.6
2017-08-02T12:35:18.978Z,28.2
2017-08-02T12:36:20.651Z,28.3
2017-08-02T12:37:22.337Z,28.4
2017-08-02T12:38:24.014Z,28.4
2017-08-02T12:39:25.695Z,28.5
2017-08-02T12:40:27.375Z,28.0
2017-08-02T12:41:29.069Z,28.4
2017-08-02T12:42:30.744Z,28.4
2017-08-02T12:43:32.422Z,28.4
2017-08-02T12:44:34.100Z,28.1
2017-08-02T12:45:35.774Z,28.2
2017-08-02T12:46:37.460Z,28.5
2017-08-02T12:47:39.139Z,28.4
2017-08-02T12:48:40.816Z,28.2
2017-08-02T12:49:42.497Z,28.2
2017-08-02T12:50:44.235Z,28.9
2017-08-02T12:51:45.911Z,29.0
2017-08-02T12:52:47.588Z,28.9
2017-08-02T12:53:49.272Z,28.8
2017-08-02T12:54:50.973Z,29.0
2017-08-02T12:55:52.670Z,28.9
2017-08-02T12:56:54.361Z,28.6
2017-08-02T12:57:56.037Z,28.3
2017-08-02T12:58:57.717Z,27.9
2017-08-02T12:59:59.400Z,27.5
2017-08-02T13:01:01.077Z,27.1
2017-08-02T13:02:02.762Z,27.0
2017-08-02T13:03:04.460Z,26.6
2017-08-02T13:04:06.145Z,26.2
2017-08-02T13:05:07.819Z,25.5
2017-08-02T13:06:09.534Z,25.3
2017-08-02T13:07:11.215Z,25.4
2017-08-02T13:08:12.888Z,25.1
2017-08-02T13:09:14.569Z,25.0
2017-08-02T13:10:16.255Z,24.7
2017-08-02T13:11:17.935Z,24.6
2017-08-02T13:12:19.615Z,24.4
2017-08-02T13:13:21.304Z,24.3
2017-08-02T13:14:22.978Z,24.3
2017-08-02T13:15:24.651Z,24.3
2017-08-02T13:16:26.339Z,24.2
2017-08-02T13:17:28.008Z,24.1
2017-08-02T13:18:29.693Z,24.0
2017-08-02T13:19:31.402Z,23.9
2017-08-02T13:20:33.065Z,23.8
2017-08-02T13:21:34.739Z,23.7
2017-08-02T13:22:36.415Z,23.3
2017-08-02T13:23:38.091Z,23.1
2017-08-02T13:24:39.760Z,23.1
2017-08-02T13:25:41.433Z,22.9
2017-08-02T13:26:43.097Z,22.9
2017-08-02T13:27:44.804Z,22.9
2017-08-02T13:28:46.471Z,23.0
2017-08-02T13:29:48.163Z,23.0
2017-08-02T13:30:49.834Z,23.3
2017-08-02T13:31:51.509Z,23.7
2017-08-02T13:32:53.188Z,23.8
2017-08-02T13:33:54.863Z,24.2
2017-08-02T13:34:56.867Z,24.4
2017-08-02T13:35:58.530Z,24.9
2017-08-02T13:37:00.195Z,25.2
2017-08-02T13:38:01.890Z,25.1
2017-08-02T13:39:03.557Z,25.5
2017-08-02T13:40:05.230Z,25.7
2017-08-02T13:41:06.947Z,25.6